Terminal Aerodrome Forecast
Issued by NWS

Home | Current Version | Previous Version | Text Only | Print | Product List | Glossary On
Versions: 1 2 3 4 5 6 7 8 9 10 11
000
FTUS46 KLOX 280500
TAFPRB
TAF
KPRB 280540Z 2806/2906 VRB03KT P6SM BKN200
     FM281100 00000KT 6SM BR SCT007 BKN200
     FM281600 VRB03KT P6SM BKN140 BKN200
     FM290000 09008KT P6SM SCT250=

USA.gov is the U.S. government's official web portal to all federal, state and local government web resources and services.